Mount Sterling, Missouri
Current Conditions -  °F | °C
As of 9:53 AM on Saturday 25 Oct 2014 (Local Time) from KVIH Reporting Station
Clear Clear  
Wind Chill: 65°   Ceiling: Unl
Heat Index: 65°   Visibility: 9mi
Dew Point: 60°   Wind: 9mph
Humidity: 84%   Direction: 300°WNW
Pressure: 30.07"   Gusts: NA
Location:  38.47°N, 91.63°W
Report Text: KVIH 251453Z AUTO 30008KT 9SM CLR 18/16 A3007 RMK AO2 SLP176 T01830156 53007
Loading
Personal Weather Stations






























Interactive Weather Map New forecast layout! Learn more

10-Day Weather Forecast

Advertisements
Track Severe Weather on mobile